createdAt,value
2018-12-26T00:01:13.251Z,20.00
2018-12-26T00:03:42.657Z,20.37
2018-12-26T00:06:12.263Z,20.63
2018-12-26T00:11:27.008Z,21.90
2018-12-26T00:13:56.538Z,22.13
2018-12-26T00:16:26.028Z,20.50
2018-12-26T00:18:55.554Z,22.30
2018-12-26T00:21:25.022Z,20.73
2018-12-26T00:24:04.255Z,21.97
2018-12-26T00:26:33.730Z,21.93
2018-12-26T00:29:03.245Z,23.23
2018-12-26T00:31:33.121Z,23.20
2018-12-26T00:34:21.410Z,23.87
2018-12-26T00:36:50.746Z,23.57
2018-12-26T00:39:20.194Z,23.87
2018-12-26T00:41:49.723Z,24.00
2018-12-26T00:44:19.241Z,21.07
2018-12-26T00:46:48.693Z,23.40
2018-12-26T00:49:18.113Z,23.60
2018-12-26T00:51:47.581Z,24.60
2018-12-26T00:54:17.084Z,23.07
2018-12-26T00:56:47.122Z,22.47
2018-12-26T00:59:16.563Z,24.47
2018-12-26T01:01:46.009Z,24.07
2018-12-26T01:04:15.609Z,24.43
2018-12-26T01:06:46.766Z,23.53
2018-12-26T01:09:16.210Z,23.80
2018-12-26T01:11:45.731Z,24.10
2018-12-26T01:14:15.174Z,24.63
2018-12-26T01:16:44.626Z,25.20
2018-12-26T01:19:14.142Z,25.87
2018-12-26T01:21:43.586Z,26.17
2018-12-26T01:24:13.092Z,27.10
2018-12-26T01:26:42.619Z,27.60
2018-12-26T01:29:12.075Z,27.77
2018-12-26T01:31:44.282Z,29.20
2018-12-26T01:34:13.906Z,30.57
2018-12-26T01:37:02.177Z,30.77
2018-12-26T01:39:32.058Z,33.23
2018-12-26T01:42:01.506Z,31.77
2018-12-26T01:44:32.057Z,32.97
2018-12-26T01:47:04.051Z,32.40
2018-12-26T01:49:33.482Z,32.37
2018-12-26T01:52:02.970Z,34.73
2018-12-26T01:54:32.486Z,34.03
2018-12-26T01:57:01.933Z,35.50
2018-12-26T01:59:31.280Z,35.97
2018-12-26T02:02:03.325Z,33.70
2018-12-26T02:04:32.674Z,37.77
2018-12-26T02:07:02.130Z,37.27
2018-12-26T02:09:31.722Z,34.70
2018-12-26T02:12:01.174Z,34.83
2018-12-26T02:14:30.620Z,32.77
2018-12-26T02:17:01.152Z,32.67
2018-12-26T02:19:31.429Z,32.63
2018-12-26T02:22:00.878Z,31.70
2018-12-26T02:24:30.494Z,31.93
2018-12-26T02:26:59.941Z,33.10
2018-12-26T02:29:29.296Z,33.93
2018-12-26T02:31:58.714Z,32.03
2018-12-26T02:34:28.055Z,33.50
2018-12-26T02:36:57.602Z,33.17
2018-12-26T02:39:27.018Z,33.17
2018-12-26T02:41:56.494Z,32.23
2018-12-26T02:44:25.936Z,32.33
2018-12-26T02:46:55.486Z,32.53
2018-12-26T02:49:24.935Z,33.40
2018-12-26T02:51:54.398Z,32.20
2018-12-26T02:54:23.910Z,32.43
2018-12-26T02:56:53.259Z,31.87
2018-12-26T02:59:22.713Z,32.53
2018-12-26T03:01:52.243Z,32.20
2018-12-26T03:04:21.802Z,33.27
2018-12-26T03:06:51.246Z,33.93
2018-12-26T03:09:20.765Z,33.00
2018-12-26T03:11:50.588Z,32.63
2018-12-26T03:14:20.026Z,33.03
2018-12-26T03:16:49.549Z,32.80
2018-12-26T03:19:18.989Z,31.03
2018-12-26T03:21:48.455Z,33.83
2018-12-26T03:24:18.047Z,31.27
2018-12-26T03:26:55.818Z,31.27
2018-12-26T03:29:18.481Z,31.20
2018-12-26T03:31:48.018Z,32.90
2018-12-26T03:34:17.453Z,32.77
2018-12-26T03:36:47.017Z,33.83
2018-12-26T03:39:26.139Z,33.40
2018-12-26T03:41:56.465Z,36.67
2018-12-26T03:44:25.919Z,37.00
2018-12-26T03:46:55.450Z,35.73
2018-12-26T03:49:24.885Z,34.87
2018-12-26T03:51:54.941Z,36.83
2018-12-26T03:54:24.450Z,35.27
2018-12-26T03:56:54.238Z,34.60
2018-12-26T03:59:23.673Z,35.60
2018-12-26T04:01:53.201Z,34.90
2018-12-26T04:04:22.680Z,34.37
2018-12-26T04:06:52.317Z,33.20
2018-12-26T04:09:21.817Z,32.43
2018-12-26T04:11:54.304Z,33.90
2018-12-26T04:14:42.606Z,33.33
2018-12-26T04:17:13.071Z,35.87
2018-12-26T04:19:42.530Z,33.80
2018-12-26T04:22:12.181Z,34.13
2018-12-26T04:24:41.664Z,35.40
2018-12-26T04:27:15.543Z,34.53
2018-12-26T04:29:42.361Z,36.97
2018-12-26T04:32:30.562Z,38.67
2018-12-26T04:35:19.843Z,38.23
2018-12-26T04:37:49.291Z,39.83
2018-12-26T04:40:18.629Z,40.40
2018-12-26T04:42:48.212Z,40.90
2018-12-26T04:45:17.670Z,42.90
2018-12-26T04:47:47.125Z,45.63
2018-12-26T04:50:16.586Z,44.70
2018-12-26T04:53:04.784Z,47.37
2018-12-26T04:55:34.663Z,46.00
2018-12-26T04:58:04.113Z,43.97
2018-12-26T05:00:33.473Z,40.73
2018-12-26T05:03:03.133Z,39.70
2018-12-26T05:05:32.628Z,36.87
2018-12-26T05:08:02.093Z,37.50
2018-12-26T05:10:31.613Z,36.07
2018-12-26T05:13:01.057Z,34.67
2018-12-26T05:15:30.506Z,34.10
2018-12-26T05:18:00.083Z,34.97
2018-12-26T05:20:29.525Z,34.80
2018-12-26T05:23:05.314Z,34.27
2018-12-26T05:25:35.113Z,34.80
2018-12-26T05:28:23.406Z,33.87
2018-12-26T05:30:53.409Z,30.87
2018-12-26T05:33:23.015Z,32.13
2018-12-26T05:35:52.599Z,30.97
2018-12-26T05:38:22.165Z,29.27
2018-12-26T05:40:51.655Z,30.08
2018-12-26T05:43:21.281Z,30.85
2018-12-26T05:46:09.515Z,30.85
2018-12-26T05:48:39.062Z,31.23
2018-12-26T05:51:10.753Z,30.17
2018-12-26T05:53:40.213Z,30.57
2018-12-26T05:56:09.739Z,30.68
2018-12-26T05:58:39.112Z,31.77
2018-12-26T06:01:08.680Z,30.15
2018-12-26T06:03:57.013Z,30.17
2018-12-26T06:06:26.383Z,31.25
2018-12-26T06:08:55.825Z,29.42
2018-12-26T06:11:25.370Z,30.12
2018-12-26T06:13:54.817Z,31.87
2018-12-26T06:16:24.164Z,28.65
2018-12-26T06:18:53.600Z,28.02
2018-12-26T06:21:41.816Z,27.13
2018-12-26T06:24:11.367Z,28.67
2018-12-26T06:26:40.810Z,28.45
2018-12-26T06:29:29.123Z,27.87
2018-12-26T06:31:58.553Z,25.88
2018-12-26T06:34:28.043Z,27.40
2018-12-26T06:36:58.522Z,26.65
2018-12-26T06:39:29.655Z,27.07
2018-12-26T06:41:59.110Z,26.65
2018-12-26T06:44:28.707Z,25.30
2018-12-26T06:46:58.145Z,24.90
2018-12-26T06:49:28.874Z,22.07
2018-12-26T06:51:58.511Z,20.10
2018-12-26T06:54:27.963Z,17.95
2018-12-26T06:56:57.433Z,18.15
2018-12-26T06:59:26.999Z,20.90
2018-12-26T07:01:56.505Z,21.10
2018-12-26T07:04:25.963Z,20.85
2018-12-26T07:06:55.491Z,21.27
2018-12-26T07:09:24.950Z,23.70
2018-12-26T07:11:54.418Z,23.07
2018-12-26T07:14:23.958Z,22.42
2018-12-26T07:16:53.410Z,19.73
2018-12-26T07:19:23.165Z,19.70
2018-12-26T07:21:52.626Z,22.52
2018-12-26T07:24:22.090Z,22.67
2018-12-26T07:26:51.558Z,22.70
2018-12-26T07:29:21.111Z,21.23
2018-12-26T07:31:50.481Z,21.82
2018-12-26T07:34:20.025Z,19.92
2018-12-26T07:36:49.627Z,19.25
2018-12-26T07:39:21.908Z,21.02
2018-12-26T07:41:51.276Z,20.32
2018-12-26T07:44:21.802Z,20.50
2018-12-26T07:46:51.354Z,19.95
2018-12-26T07:49:20.799Z,17.85
2018-12-26T07:51:51.049Z,19.92
2018-12-26T07:54:20.809Z,19.95
2018-12-26T07:57:09.205Z,21.40
2018-12-26T07:59:38.793Z,22.62
2018-12-26T08:02:08.243Z,23.98
2018-12-26T08:04:37.761Z,22.75
2018-12-26T08:07:07.226Z,23.47
2018-12-26T08:09:36.835Z,22.00
2018-12-26T08:12:06.368Z,20.97
2018-12-26T08:17:21.979Z,20.52
2018-12-26T08:19:51.443Z,19.20
2018-12-26T08:22:20.897Z,18.07
2018-12-26T08:24:50.431Z,16.17
2018-12-26T08:27:19.953Z,14.65
2018-12-26T08:29:49.509Z,12.65
2018-12-26T08:32:19.071Z,11.20
2018-12-26T08:34:49.246Z,11.97
2018-12-26T08:37:18.715Z,10.75
2018-12-26T08:39:48.234Z,11.20
2018-12-26T08:42:18.809Z,9.13
2018-12-26T08:44:48.604Z,10.00
2018-12-26T08:47:18.267Z,11.68
2018-12-26T08:49:48.656Z,13.35
2018-12-26T08:52:18.151Z,12.07
2018-12-26T08:54:47.710Z,13.43
2018-12-26T08:57:17.408Z,12.73
2018-12-26T08:59:46.901Z,13.62
2018-12-26T09:02:16.809Z,14.03
2018-12-26T09:04:46.496Z,9.83
2018-12-26T09:07:15.945Z,11.38
2018-12-26T09:09:45.495Z,11.45
2018-12-26T09:12:14.826Z,10.30
2018-12-26T09:14:44.374Z,9.73
2018-12-26T09:17:14.727Z,10.95
2018-12-26T09:19:44.105Z,10.25
2018-12-26T09:22:13.669Z,9.55
2018-12-26T09:24:43.245Z,8.43
2018-12-26T09:27:13.312Z,10.23
2018-12-26T09:29:42.791Z,11.03
2018-12-26T09:32:12.344Z,8.50
2018-12-26T09:34:41.778Z,6.28
2018-12-26T09:37:11.245Z,6.80
2018-12-26T09:39:41.153Z,7.12
2018-12-26T09:42:10.601Z,8.35
2018-12-26T09:44:59.002Z,5.58
2018-12-26T09:47:28.478Z,7.08
2018-12-26T09:49:58.026Z,7.08
2018-12-26T09:52:27.599Z,6.92
2018-12-26T09:54:56.971Z,7.97
2018-12-26T09:57:26.448Z,7.85
2018-12-26T10:00:14.755Z,7.40
2018-12-26T10:02:44.282Z,5.47
2018-12-26T10:05:13.780Z,5.95
2018-12-26T10:07:45.787Z,6.03
2018-12-26T10:10:15.313Z,7.05
2018-12-26T10:12:44.699Z,6.05
2018-12-26T10:15:15.272Z,7.62
2018-12-26T10:18:17.263Z,7.70
2018-12-26T10:20:35.954Z,6.80
2018-12-26T10:23:05.768Z,5.65
2018-12-26T10:25:35.638Z,6.85
2018-12-26T10:28:07.207Z,6.90
2018-12-26T10:30:37.015Z,7.12
2018-12-26T10:33:06.477Z,6.42
2018-12-26T10:35:36.000Z,6.30
2018-12-26T10:38:05.470Z,7.25
2018-12-26T10:40:34.948Z,7.00
2018-12-26T10:43:04.533Z,7.10
2018-12-26T10:45:33.886Z,8.68
2018-12-26T10:48:03.361Z,7.53
2018-12-26T10:50:33.155Z,7.60
2018-12-26T10:53:02.655Z,7.80
2018-12-26T10:55:32.126Z,8.13
2018-12-26T10:58:01.655Z,7.65
2018-12-26T11:00:31.149Z,6.60
2018-12-26T11:03:00.642Z,6.92
2018-12-26T11:05:30.194Z,7.22
2018-12-26T11:07:59.691Z,6.20
2018-12-26T11:10:29.506Z,5.25
2018-12-26T11:12:58.979Z,5.87
2018-12-26T11:15:28.427Z,6.60
2018-12-26T11:17:58.166Z,5.92
2018-12-26T11:20:27.808Z,6.42
2018-12-26T11:22:57.269Z,5.10
2018-12-26T11:25:27.834Z,5.70
2018-12-26T11:27:57.387Z,6.58
2018-12-26T11:30:26.862Z,6.55
2018-12-26T11:32:56.398Z,6.17
2018-12-26T11:35:26.093Z,5.92
2018-12-26T11:37:55.559Z,6.22
2018-12-26T11:40:25.480Z,5.70
2018-12-26T11:42:55.093Z,6.05
2018-12-26T11:45:24.546Z,5.60
2018-12-26T11:47:54.014Z,5.70
2018-12-26T11:50:23.550Z,6.00
2018-12-26T11:52:53.127Z,5.55
2018-12-26T11:55:22.655Z,5.75
2018-12-26T11:57:52.338Z,6.47
2018-12-26T12:00:21.941Z,5.08
2018-12-26T12:02:53.483Z,4.92
2018-12-26T12:05:23.152Z,5.67
2018-12-26T12:07:52.662Z,5.47
2018-12-26T12:10:22.263Z,5.10
2018-12-26T12:12:51.710Z,5.17
2018-12-26T12:15:21.213Z,5.25
2018-12-26T12:17:50.715Z,6.90
2018-12-26T12:20:20.294Z,7.10
2018-12-26T12:23:08.609Z,6.37
2018-12-26T12:25:38.531Z,9.38
2018-12-26T12:28:08.143Z,7.58
2018-12-26T12:30:38.665Z,7.75
2018-12-26T12:35:51.353Z,7.75
2018-12-26T12:38:20.816Z,8.03
2018-12-26T12:40:50.274Z,7.95
2018-12-26T12:43:19.993Z,8.33
2018-12-26T12:45:49.467Z,8.28
2018-12-26T12:48:19.045Z,9.53
2018-12-26T12:50:48.571Z,9.08
2018-12-26T12:53:19.910Z,9.18
2018-12-26T12:55:49.454Z,8.85
2018-12-26T12:58:18.976Z,10.32
2018-12-26T13:00:48.415Z,8.58
2018-12-26T13:03:19.097Z,9.58
2018-12-26T13:05:49.542Z,9.50
2018-12-26T13:08:21.800Z,8.88
2018-12-26T13:10:51.318Z,10.70
2018-12-26T13:13:20.782Z,11.05
2018-12-26T13:15:50.253Z,13.20
2018-12-26T13:18:19.794Z,12.00
2018-12-26T13:20:49.319Z,12.10
2018-12-26T13:23:18.773Z,11.90
2018-12-26T13:25:48.376Z,12.35
2018-12-26T13:28:17.850Z,11.70
2018-12-26T13:30:47.323Z,12.13
2018-12-26T13:33:16.881Z,12.68
2018-12-26T13:35:46.349Z,13.10
2018-12-26T13:38:15.913Z,12.88
2018-12-26T13:40:45.340Z,13.03
2018-12-26T13:43:14.794Z,11.83
2018-12-26T13:45:47.313Z,13.20
2018-12-26T13:48:16.790Z,13.70
2018-12-26T13:51:05.034Z,12.70
2018-12-26T13:53:34.661Z,13.85
2018-12-26T13:56:04.115Z,14.53
2018-12-26T13:58:33.622Z,13.98
2018-12-26T14:01:22.039Z,16.40
2018-12-26T14:03:51.642Z,12.53
2018-12-26T14:11:43.997Z,14.70
2018-12-26T14:14:13.709Z,17.37
2018-12-26T14:16:45.865Z,18.35
2018-12-26T14:19:15.286Z,21.17
2018-12-26T14:21:44.777Z,19.00
2018-12-26T14:24:14.254Z,19.57
2018-12-26T14:26:43.855Z,21.75
2018-12-26T14:29:13.250Z,19.80
2018-12-26T14:31:42.718Z,22.25
2018-12-26T14:34:12.286Z,20.57
2018-12-26T14:36:41.766Z,19.32
2018-12-26T14:39:11.679Z,20.88
2018-12-26T14:41:41.338Z,19.87
2018-12-26T14:47:12.058Z,21.57
2018-12-26T14:49:41.538Z,21.20
2018-12-26T14:52:10.995Z,21.65
2018-12-26T14:54:40.684Z,23.47
2018-12-26T14:57:10.210Z,25.20
2018-12-26T14:59:39.764Z,23.83
2018-12-26T15:02:09.740Z,22.48
2018-12-26T15:04:57.963Z,21.37
2018-12-26T15:07:27.417Z,21.40
2018-12-26T15:09:56.891Z,21.50
2018-12-26T15:12:26.383Z,21.90
2018-12-26T15:14:56.331Z,21.90
2018-12-26T15:17:25.805Z,22.27
2018-12-26T15:19:55.352Z,22.87
2018-12-26T15:22:43.780Z,22.70
2018-12-26T15:25:13.266Z,21.97
2018-12-26T15:27:42.839Z,24.77
2018-12-26T15:30:12.369Z,24.82
2018-12-26T15:32:41.930Z,25.05
2018-12-26T15:35:30.429Z,24.72
2018-12-26T15:37:59.889Z,24.77
2018-12-26T15:40:29.345Z,25.55
2018-12-26T15:42:58.789Z,25.70
2018-12-26T15:45:28.255Z,24.55
2018-12-26T15:47:57.748Z,26.02
2018-12-26T15:50:27.308Z,24.87
2018-12-26T15:53:15.527Z,26.57
2018-12-26T15:55:45.181Z,26.15
2018-12-26T15:58:14.653Z,24.67
2018-12-26T16:00:44.107Z,25.08
2018-12-26T16:05:47.183Z,26.57
2018-12-26T16:08:16.654Z,26.33
2018-12-26T16:10:46.091Z,25.72
2018-12-26T16:13:15.638Z,27.27
2018-12-26T16:15:45.082Z,25.55
2018-12-26T16:18:14.566Z,26.25
2018-12-26T16:20:44.112Z,26.77
2018-12-26T16:23:13.582Z,25.20
2018-12-26T16:25:43.067Z,23.62
2018-12-26T16:28:12.589Z,25.62
2018-12-26T16:30:46.065Z,23.70
2018-12-26T16:33:13.050Z,24.85
2018-12-26T16:35:42.608Z,23.62
2018-12-26T16:38:12.099Z,25.70
2018-12-26T16:41:00.382Z,24.07
2018-12-26T16:43:29.830Z,22.80
2018-12-26T16:45:59.359Z,25.65
2018-12-26T16:48:28.896Z,24.15
2018-12-26T16:50:58.393Z,25.35
2018-12-26T16:53:28.214Z,24.67
2018-12-26T16:55:58.974Z,23.20
2018-12-26T16:58:47.194Z,24.43
2018-12-26T17:01:16.766Z,24.05
2018-12-26T17:03:46.228Z,24.52
2018-12-26T17:06:15.727Z,25.32
2018-12-26T17:08:45.271Z,25.27
2018-12-26T17:11:14.710Z,23.92
2018-12-26T17:13:45.178Z,24.60
2018-12-26T17:16:14.695Z,25.30
2018-12-26T17:18:44.158Z,24.35
2018-12-26T17:21:13.622Z,24.80
2018-12-26T17:23:43.191Z,23.67
2018-12-26T17:26:12.649Z,24.23
2018-12-26T17:28:42.123Z,24.40
2018-12-26T17:31:11.634Z,24.40
2018-12-26T17:33:44.058Z,25.72
2018-12-26T17:36:13.587Z,26.10
2018-12-26T17:38:46.123Z,25.45
2018-12-26T17:41:16.021Z,25.32
2018-12-26T17:43:45.554Z,27.10
2018-12-26T17:46:15.154Z,26.17
2018-12-26T17:48:44.614Z,27.22
2018-12-26T17:51:15.655Z,26.93
2018-12-26T17:53:52.341Z,26.97
2018-12-26T17:59:33.190Z,27.87
2018-12-26T18:02:11.358Z,27.73
2018-12-26T18:04:40.823Z,28.75
2018-12-26T18:07:10.327Z,29.18
2018-12-26T18:09:39.932Z,31.70
2018-12-26T18:12:11.998Z,30.15
2018-12-26T18:14:40.534Z,31.35
2018-12-26T18:17:10.051Z,31.10
2018-12-26T18:19:39.540Z,31.83
2018-12-26T18:22:09.144Z,34.15
2018-12-26T18:24:38.682Z,32.37
2018-12-26T18:29:53.733Z,33.33
2018-12-26T18:32:23.163Z,34.53
2018-12-26T18:34:52.630Z,36.00
2018-12-26T18:37:22.496Z,35.30
2018-12-26T18:39:52.013Z,36.30
2018-12-26T18:42:21.484Z,37.17
2018-12-26T18:44:51.052Z,37.87
2018-12-26T18:47:20.411Z,36.10
2018-12-26T18:49:52.807Z,35.97
2018-12-26T18:52:22.444Z,34.63
2018-12-26T18:54:52.713Z,36.13
2018-12-26T18:57:22.183Z,34.50
2018-12-26T18:59:51.792Z,34.10
2018-12-26T19:02:21.262Z,33.30
2018-12-26T19:04:50.726Z,34.93
2018-12-26T19:07:20.260Z,34.07
2018-12-26T19:09:49.736Z,34.10
2018-12-26T19:12:19.199Z,33.53
2018-12-26T19:14:48.765Z,34.53
2018-12-26T19:17:18.237Z,33.30
2018-12-26T19:19:47.685Z,33.57
2018-12-26T19:22:18.742Z,34.10
2018-12-26T19:24:48.351Z,36.67
2018-12-26T19:27:17.787Z,36.13
2018-12-26T19:29:47.462Z,35.93
2018-12-26T19:32:18.349Z,36.77
2018-12-26T19:34:48.864Z,36.07
2018-12-26T19:37:18.414Z,36.93
2018-12-26T19:39:47.874Z,36.03
2018-12-26T19:42:17.334Z,35.10
2018-12-26T19:44:46.887Z,34.33
2018-12-26T19:47:16.466Z,36.27
2018-12-26T19:49:45.971Z,35.20
2018-12-26T19:52:15.605Z,34.43
2018-12-26T19:54:44.954Z,35.13
2018-12-26T19:57:14.417Z,34.97
2018-12-26T19:59:43.947Z,36.13
2018-12-26T20:02:13.460Z,35.60
2018-12-26T20:04:42.914Z,36.57
2018-12-26T20:07:15.123Z,33.77
2018-12-26T20:09:44.691Z,31.60
2018-12-26T20:12:14.132Z,32.27
2018-12-26T20:14:43.699Z,30.80
2018-12-26T20:17:13.275Z,31.20
2018-12-26T20:19:42.730Z,32.60
2018-12-26T20:22:12.340Z,30.87
2018-12-26T20:24:41.838Z,30.47
2018-12-26T20:27:11.326Z,29.67
2018-12-26T20:29:40.866Z,30.20
2018-12-26T20:32:10.315Z,29.97
2018-12-26T20:34:39.761Z,28.60
2018-12-26T20:37:09.301Z,27.50
2018-12-26T20:39:38.773Z,26.97
2018-12-26T20:42:08.226Z,27.67
2018-12-26T20:44:37.770Z,28.87
2018-12-26T20:47:07.145Z,28.93
2018-12-26T20:49:36.594Z,28.87
2018-12-26T20:52:25.007Z,27.67
2018-12-26T20:54:54.464Z,28.13
2018-12-26T20:57:23.977Z,30.47
2018-12-26T20:59:53.478Z,27.80
2018-12-26T21:02:23.022Z,28.33
2018-12-26T21:04:52.477Z,27.37
2018-12-26T21:07:22.014Z,26.90
2018-12-26T21:09:51.475Z,28.10
2018-12-26T21:12:20.939Z,26.53
2018-12-26T21:14:51.208Z,27.27
2018-12-26T21:17:20.554Z,27.93
2018-12-26T21:19:50.006Z,27.10
2018-12-26T21:22:19.536Z,26.00
2018-12-26T21:24:49.992Z,27.83
2018-12-26T21:27:19.447Z,27.47
2018-12-26T21:29:48.973Z,25.10
2018-12-26T21:32:18.536Z,24.93
2018-12-26T21:34:47.995Z,24.90
2018-12-26T21:37:17.518Z,26.33
2018-12-26T21:39:46.973Z,24.63
2018-12-26T21:42:16.484Z,24.93
2018-12-26T21:44:46.021Z,23.30
2018-12-26T21:47:15.487Z,24.30
2018-12-26T21:49:44.953Z,23.13
2018-12-26T21:52:14.471Z,22.37
2018-12-26T21:54:43.913Z,22.77
2018-12-26T21:57:13.374Z,20.83
2018-12-26T21:59:42.897Z,21.10
2018-12-26T22:02:12.345Z,20.30
2018-12-26T22:04:42.206Z,20.60
2018-12-26T22:07:12.085Z,20.13
2018-12-26T22:10:00.289Z,20.53
2018-12-26T22:12:29.869Z,18.90
2018-12-26T22:14:59.367Z,20.20
2018-12-26T22:17:28.818Z,21.47
2018-12-26T22:19:58.437Z,19.63
2018-12-26T22:22:27.894Z,19.63
2018-12-26T22:24:57.354Z,18.83
2018-12-26T22:27:45.631Z,19.70
2018-12-26T22:30:15.105Z,19.30
2018-12-26T22:32:44.584Z,18.47
2018-12-26T22:35:14.213Z,20.10
2018-12-26T22:37:43.669Z,21.03
2018-12-26T22:40:13.131Z,20.67
2018-12-26T22:42:42.650Z,20.90
2018-12-26T22:45:12.157Z,20.17
2018-12-26T22:47:41.613Z,20.23
2018-12-26T22:50:11.139Z,20.23
2018-12-26T22:52:40.602Z,20.93
2018-12-26T22:55:10.048Z,20.97
2018-12-26T22:57:39.569Z,19.27
2018-12-26T23:00:09.797Z,18.70
2018-12-26T23:02:39.357Z,16.13
2018-12-26T23:05:19.375Z,17.23
2018-12-26T23:07:49.119Z,17.83
2018-12-26T23:10:19.615Z,16.73
2018-12-26T23:12:48.993Z,16.80
2018-12-26T23:17:49.512Z,13.97
2018-12-26T23:20:19.162Z,17.10
2018-12-26T23:22:48.513Z,17.33
2018-12-26T23:25:18.078Z,15.83
2018-12-26T23:27:47.534Z,16.83
2018-12-26T23:30:16.985Z,15.43
2018-12-26T23:32:47.240Z,15.73
2018-12-26T23:35:16.858Z,17.27
2018-12-26T23:37:46.315Z,16.80
2018-12-26T23:40:15.952Z,16.83
2018-12-26T23:42:45.439Z,17.20
2018-12-26T23:45:14.891Z,17.43
2018-12-26T23:47:44.311Z,16.30
2018-12-26T23:50:13.844Z,17.77
2018-12-26T23:52:43.297Z,18.20
2018-12-26T23:55:13.262Z,17.30
2018-12-26T23:57:42.730Z,17.63
